createdAt,value
2022-12-23T06:56:11.390Z,7.00
2022-12-23T06:58:38.587Z,7.00
2022-12-23T07:01:06.465Z,6.70
2022-12-23T07:03:33.862Z,6.50
2022-12-23T07:06:01.348Z,6.30
2022-12-23T07:08:28.553Z,6.10
2022-12-23T07:10:59.872Z,6.10
2022-12-23T07:13:27.772Z,6.30
2022-12-23T07:15:55.356Z,5.90
2022-12-23T07:18:23.510Z,6.00
2022-12-23T07:20:52.048Z,6.00
2022-12-23T07:23:19.330Z,6.00
2022-12-23T07:25:47.143Z,5.90
2022-12-23T07:28:14.283Z,6.20
2022-12-23T07:30:41.717Z,6.30
2022-12-23T07:33:09.052Z,6.30
2022-12-23T07:35:36.533Z,6.20
2022-12-23T07:38:03.861Z,6.10
2022-12-23T07:40:31.277Z,6.10
2022-12-23T07:42:59.299Z,6.00
2022-12-23T07:45:28.200Z,5.90
2022-12-23T07:47:57.826Z,6.00
2022-12-23T07:50:26.562Z,6.00
2022-12-23T07:52:54.597Z,5.90
2022-12-23T07:55:22.656Z,6.00
2022-12-23T07:57:51.296Z,6.00
2022-12-23T08:00:20.193Z,6.00
2022-12-23T08:02:48.792Z,5.90
2022-12-23T08:05:16.918Z,5.90
2022-12-23T08:07:49.911Z,5.90
2022-12-23T08:10:17.506Z,6.20
2022-12-23T08:12:46.419Z,6.20
2022-12-23T08:15:13.891Z,6.10
2022-12-23T08:17:41.234Z,6.10
2022-12-23T08:20:09.272Z,6.20
2022-12-23T08:22:36.539Z,6.10
2022-12-23T08:25:04.479Z,6.20
2022-12-23T08:27:31.744Z,6.30
2022-12-23T08:29:59.202Z,6.30
2022-12-23T08:32:27.554Z,6.30
2022-12-23T08:34:57.964Z,6.30
2022-12-23T08:37:25.681Z,6.30
2022-12-23T08:39:53.233Z,6.30
2022-12-23T08:42:20.896Z,6.40
2022-12-23T08:44:48.555Z,6.40
2022-12-23T08:47:15.961Z,6.40
2022-12-23T08:49:43.404Z,6.30
2022-12-23T08:52:10.534Z,6.40
2022-12-23T08:54:37.987Z,6.50
2022-12-23T08:57:05.198Z,6.50
2022-12-23T08:59:32.645Z,6.60
2022-12-23T09:02:02.038Z,6.70
2022-12-23T09:04:29.709Z,6.70
2022-12-23T09:06:56.890Z,6.80
2022-12-23T09:09:24.329Z,6.80
2022-12-23T09:11:51.582Z,6.90
2022-12-23T09:14:21.174Z,6.90
2022-12-23T09:16:51.824Z,6.90
2022-12-23T09:19:19.559Z,7.00
2022-12-23T09:21:48.188Z,6.90
2022-12-23T09:24:15.749Z,6.90
2022-12-23T09:26:44.240Z,7.00
2022-12-23T09:29:14.063Z,7.10
2022-12-23T09:31:41.457Z,7.00
2022-12-23T09:34:11.413Z,7.10
2022-12-23T09:36:38.727Z,7.50
2022-12-23T09:39:06.242Z,7.30
2022-12-23T09:41:48.896Z,7.20
2022-12-23T09:44:58.601Z,7.00
2022-12-23T09:47:28.285Z,7.00
2022-12-23T09:50:03.388Z,7.00
2022-12-23T09:53:06.588Z,7.00
2022-12-23T09:56:01.745Z,7.00
2022-12-23T09:58:47.203Z,7.10
2022-12-23T10:01:55.597Z,7.10
2022-12-23T10:04:22.986Z,7.10
2022-12-23T10:07:03.389Z,7.10
2022-12-23T10:09:38.835Z,7.10
2022-12-23T10:12:23.617Z,7.10
2022-12-23T10:14:56.971Z,7.10
2022-12-23T10:17:32.133Z,7.20
2022-12-23T10:20:02.769Z,7.40
2022-12-23T10:22:43.980Z,7.30
2022-12-23T10:25:21.932Z,7.50
2022-12-23T10:27:49.414Z,7.60
2022-12-23T10:30:53.493Z,7.60
2022-12-23T10:33:40.250Z,7.70
2022-12-23T10:36:23.540Z,7.50
2022-12-23T10:38:59.427Z,7.50
2022-12-23T10:41:45.759Z,7.20
2022-12-23T10:44:45.799Z,7.20
2022-12-23T10:47:24.989Z,7.30
2022-12-23T10:50:29.346Z,7.30
2022-12-23T10:53:02.054Z,7.30
2022-12-23T10:55:35.051Z,7.60
2022-12-23T10:58:08.610Z,8.00
2022-12-23T11:00:40.193Z,8.20
2022-12-23T11:03:31.249Z,8.30
2022-12-23T11:06:00.250Z,8.40
2022-12-23T11:08:31.160Z,8.50
2022-12-23T11:11:01.269Z,8.60
2022-12-23T11:13:36.508Z,8.60
2022-12-23T11:16:22.990Z,8.70
2022-12-23T11:19:14.247Z,8.50
2022-12-23T11:21:58.231Z,8.60
2022-12-23T11:24:27.662Z,8.70
2022-12-23T11:27:07.318Z,8.90
2022-12-23T11:29:37.395Z,8.90
2022-12-23T11:32:24.047Z,8.90
2022-12-23T11:34:51.910Z,8.70
2022-12-23T11:37:42.957Z,8.70
2022-12-23T11:40:35.718Z,8.70
2022-12-23T11:43:15.165Z,8.80
2022-12-23T11:45:42.438Z,8.80
2022-12-23T11:48:28.853Z,8.90
2022-12-23T11:51:01.148Z,8.70
2022-12-23T11:53:29.331Z,8.70
2022-12-23T11:55:56.481Z,8.80
2022-12-23T11:58:25.063Z,8.80
2022-12-23T12:01:01.275Z,8.90
2022-12-23T12:03:35.542Z,8.90
2022-12-23T12:06:05.280Z,8.90
2022-12-23T12:08:38.496Z,9.00
2022-12-23T12:11:16.794Z,8.90
2022-12-23T12:13:56.997Z,8.80
2022-12-23T12:17:01.626Z,8.50
2022-12-23T12:19:53.018Z,8.50
2022-12-23T12:22:35.815Z,8.50
2022-12-23T12:25:14.676Z,8.60
2022-12-23T12:27:45.451Z,8.60
2022-12-23T12:30:19.617Z,8.60
2022-12-23T12:33:05.298Z,8.60
2022-12-23T12:35:53.425Z,8.60
2022-12-23T12:38:32.671Z,8.50
2022-12-23T12:41:08.720Z,8.70
2022-12-23T12:43:46.164Z,8.80
2022-12-23T12:46:24.814Z,8.80
2022-12-23T12:48:57.812Z,8.90
2022-12-23T12:51:31.634Z,8.90
2022-12-23T12:54:23.656Z,8.80
2022-12-23T12:56:54.049Z,8.70
2022-12-23T12:59:31.135Z,8.70
2022-12-23T13:02:01.464Z,8.60
2022-12-23T13:04:45.106Z,8.60
2022-12-23T13:07:19.010Z,8.50
2022-12-23T13:10:18.401Z,8.50
2022-12-23T13:13:09.638Z,8.40
2022-12-23T13:15:42.703Z,8.30
2022-12-23T13:18:28.963Z,8.20
2022-12-23T13:21:04.971Z,7.90
2022-12-23T13:23:48.311Z,7.80
2022-12-23T13:26:38.867Z,7.80
2022-12-23T13:29:27.110Z,8.10
2022-12-23T13:32:18.986Z,8.10
2022-12-23T13:35:01.254Z,8.10
2022-12-23T13:37:53.974Z,8.10
2022-12-23T13:40:41.926Z,8.30
2022-12-23T13:43:19.407Z,8.20
2022-12-23T13:45:49.008Z,8.30
2022-12-23T13:48:43.394Z,8.30
2022-12-23T13:51:39.896Z,8.20
2022-12-23T13:54:31.630Z,8.20
2022-12-23T13:57:21.469Z,8.30
2022-12-23T14:00:17.475Z,8.20
2022-12-23T14:03:12.780Z,8.70
2022-12-23T14:05:45.342Z,8.50
2022-12-23T14:08:21.708Z,8.40
2022-12-23T14:11:01.713Z,8.30
2022-12-23T14:13:41.305Z,8.30
2022-12-23T14:16:39.381Z,8.20
2022-12-23T14:19:06.974Z,8.20
2022-12-23T14:21:48.884Z,8.20
2022-12-23T14:24:31.706Z,8.20
2022-12-23T14:27:26.758Z,8.30
2022-12-23T14:30:31.953Z,8.20
2022-12-23T14:33:02.519Z,8.20
2022-12-23T14:35:38.581Z,8.30
2022-12-23T14:38:15.195Z,8.30
2022-12-23T14:40:42.937Z,8.30
2022-12-23T14:43:22.419Z,8.30
2022-12-23T14:46:23.938Z,8.30
2022-12-23T14:48:59.551Z,8.20
2022-12-23T14:51:40.808Z,8.20
2022-12-23T14:54:08.817Z,8.30
2022-12-23T14:56:41.037Z,8.30
2022-12-23T14:59:38.325Z,8.10
2022-12-23T15:02:38.755Z,8.10
2022-12-23T15:05:07.536Z,7.90
2022-12-23T15:07:43.685Z,8.00
2022-12-23T15:10:18.887Z,7.90
2022-12-23T15:12:49.278Z,7.70
2022-12-23T15:15:22.847Z,7.60
2022-12-23T15:18:05.109Z,7.70
2022-12-23T15:20:33.162Z,7.50
2022-12-23T15:23:01.691Z,7.60
2022-12-23T15:25:33.886Z,7.50
2022-12-23T15:28:03.612Z,7.50
2022-12-23T15:30:36.445Z,7.40
2022-12-23T15:33:28.007Z,7.40
2022-12-23T15:35:55.134Z,7.40
2022-12-23T15:38:27.316Z,7.60
2022-12-23T15:40:58.797Z,7.60
2022-12-23T15:43:26.428Z,7.50
2022-12-23T15:45:53.997Z,7.70
2022-12-23T15:48:30.234Z,7.80
2022-12-23T15:51:01.784Z,7.80
2022-12-23T15:53:31.997Z,7.80
2022-12-23T15:56:03.467Z,7.90
2022-12-23T15:58:32.797Z,8.00
2022-12-23T16:01:01.367Z,8.00
2022-12-23T16:03:41.751Z,8.10
2022-12-23T16:06:21.394Z,8.00
2022-12-23T16:09:04.612Z,8.10
2022-12-23T16:11:47.842Z,8.10
2022-12-23T16:14:25.212Z,8.00
2022-12-23T16:16:52.923Z,8.10
2022-12-23T16:19:45.675Z,8.10
2022-12-23T16:22:33.915Z,8.10
2022-12-23T16:25:19.907Z,7.90
2022-12-23T16:28:04.180Z,8.00
2022-12-23T16:30:37.634Z,8.00
2022-12-23T16:33:20.819Z,8.00
2022-12-23T16:35:48.242Z,8.00
2022-12-23T16:38:21.154Z,7.90
2022-12-23T16:40:51.351Z,7.90
2022-12-23T16:43:19.840Z,7.80
2022-12-23T16:45:51.482Z,7.70
2022-12-23T16:48:28.035Z,7.70
2022-12-23T16:50:55.715Z,7.60
2022-12-23T16:53:23.095Z,7.70
2022-12-23T16:55:55.313Z,7.70
2022-12-23T16:58:27.341Z,7.60
2022-12-23T17:00:55.176Z,7.60
2022-12-23T17:03:22.653Z,7.60
2022-12-23T17:05:50.072Z,7.60
2022-12-23T17:08:17.596Z,7.60
2022-12-23T17:10:45.794Z,7.60
2022-12-23T17:13:16.796Z,7.60
2022-12-23T17:15:45.319Z,7.70
2022-12-23T17:18:15.020Z,7.60
2022-12-23T17:20:45.059Z,7.60
2022-12-23T17:23:28.752Z,7.50
2022-12-23T17:25:56.849Z,7.50
2022-12-23T17:28:29.704Z,7.50
2022-12-23T17:30:58.673Z,7.50
2022-12-23T17:33:30.338Z,7.50
2022-12-23T17:35:58.969Z,7.60
2022-12-23T17:38:29.022Z,7.50
2022-12-23T17:41:00.391Z,7.50
2022-12-23T17:43:27.695Z,7.50
2022-12-23T17:45:55.467Z,7.50
2022-12-23T17:50:58.989Z,7.40
2022-12-23T17:53:26.261Z,7.50
2022-12-23T17:55:53.720Z,7.40
2022-12-23T17:58:21.944Z,7.40
2022-12-23T18:00:49.423Z,7.30
2022-12-23T18:03:24.130Z,7.30
2022-12-23T18:05:59.369Z,7.30
2022-12-23T18:08:29.227Z,7.10
2022-12-23T18:10:58.034Z,7.10
2022-12-23T18:13:25.404Z,7.00
2022-12-23T18:18:31.169Z,6.90
2022-12-23T18:21:05.700Z,6.90
2022-12-23T18:23:34.396Z,6.80
2022-12-23T18:26:01.928Z,6.70
2022-12-23T18:30:58.578Z,6.40
2022-12-23T18:33:28.756Z,6.50
2022-12-23T18:35:56.702Z,6.50
2022-12-23T18:38:24.137Z,6.30
2022-12-23T18:40:54.121Z,6.30
2022-12-23T18:43:24.052Z,6.20
2022-12-23T18:45:53.803Z,6.20
2022-12-23T18:48:21.926Z,6.30
2022-12-23T18:50:49.498Z,6.40
2022-12-23T18:53:24.368Z,6.30
2022-12-23T18:55:53.563Z,6.40
2022-12-23T18:58:21.881Z,6.40
2022-12-23T19:00:51.026Z,6.50
2022-12-23T19:03:28.477Z,6.50
2022-12-23T19:05:56.998Z,6.50
2022-12-23T19:08:27.412Z,6.40
2022-12-23T19:10:55.993Z,6.50
2022-12-23T19:13:23.345Z,6.50
2022-12-23T19:15:50.899Z,6.50
2022-12-23T19:18:21.025Z,6.60
2022-12-23T19:20:49.311Z,6.60
2022-12-23T19:23:17.575Z,6.50
2022-12-23T19:25:52.785Z,6.60
2022-12-23T19:28:23.095Z,6.60
2022-12-23T19:30:50.674Z,6.60
2022-12-23T19:33:18.107Z,6.80
2022-12-23T19:35:45.759Z,6.80
2022-12-23T19:38:13.141Z,7.00
2022-12-23T19:40:41.065Z,7.20
2022-12-23T19:43:08.331Z,7.20
2022-12-23T19:45:35.806Z,7.20
2022-12-23T19:48:03.249Z,7.10
2022-12-23T19:50:30.775Z,7.10
2022-12-23T19:52:58.212Z,7.10
2022-12-23T19:55:25.761Z,7.10
2022-12-23T19:57:53.115Z,7.00
2022-12-23T20:00:20.724Z,7.10
2022-12-23T20:02:50.168Z,7.10
2022-12-23T20:05:20.190Z,7.20
2022-12-23T20:07:47.421Z,7.20
2022-12-23T20:10:14.966Z,7.20
2022-12-23T20:12:42.268Z,7.30
2022-12-23T20:15:09.931Z,7.30
2022-12-23T20:17:37.963Z,7.40
2022-12-23T20:20:06.991Z,7.40
2022-12-23T20:22:34.107Z,7.50
2022-12-23T20:25:01.657Z,7.30
2022-12-23T20:27:28.904Z,7.30
2022-12-23T20:29:56.455Z,7.30
2022-12-23T20:32:23.699Z,7.40
2022-12-23T20:34:51.208Z,7.40
2022-12-23T20:37:20.080Z,7.30
2022-12-23T20:39:47.770Z,7.40
2022-12-23T20:42:15.018Z,7.50
2022-12-23T20:44:42.603Z,7.40
2022-12-23T20:47:09.845Z,7.40
2022-12-23T20:52:05.563Z,7.40
2022-12-23T20:54:34.039Z,7.20
2022-12-23T20:57:02.229Z,7.60
2022-12-23T20:59:29.723Z,7.60
2022-12-23T21:01:59.247Z,7.70
2022-12-23T21:04:27.286Z,7.70
2022-12-23T21:09:23.614Z,7.50
2022-12-23T21:11:50.796Z,7.50
2022-12-23T21:14:18.456Z,7.40
2022-12-23T21:16:45.906Z,7.40
2022-12-23T21:19:19.666Z,7.40
2022-12-23T21:21:48.224Z,7.40
2022-12-23T21:24:16.778Z,7.40
2022-12-23T21:26:47.749Z,7.30
2022-12-23T21:29:20.067Z,7.30
2022-12-23T21:31:47.464Z,7.30
2022-12-23T21:34:15.467Z,7.20
2022-12-23T21:39:14.962Z,7.10
2022-12-23T21:44:13.809Z,7.20
2022-12-23T21:46:41.051Z,7.30
2022-12-23T21:49:09.338Z,7.40
2022-12-23T21:51:40.625Z,7.20
2022-12-23T21:54:09.273Z,6.80
2022-12-23T21:56:37.042Z,6.60
2022-12-23T21:59:07.213Z,6.60
2022-12-23T22:01:35.066Z,6.60
2022-12-23T22:04:02.896Z,6.50
2022-12-23T22:06:38.207Z,6.60
2022-12-23T22:09:07.959Z,6.40
2022-12-23T22:11:36.570Z,6.50
2022-12-23T22:14:06.726Z,6.60
2022-12-23T22:16:35.242Z,6.30
2022-12-23T22:19:04.810Z,6.40
2022-12-23T22:21:33.505Z,6.50
2022-12-23T22:24:01.437Z,6.20
2022-12-23T22:26:31.233Z,6.20
2022-12-23T22:29:01.176Z,6.20
2022-12-23T22:31:47.847Z,6.20
2022-12-23T22:41:50.770Z,6.00
